< Typhoon 201904 2019 Season Typhoon 201906 >
Typhoon 201905 (DANAS)
General InformationTrack Information on Google MapsDetailed Wind InformationForecast History on Google MapsAccess Analytics MapList of All Images || NewsDisaster Info.WeblogTrackbackTyphoon FrontTwiphoonTyphoon Now!Typhoon ImaginationJMA Disaster Info. XMLResourceGoogle EarthGE AnimationAtom FeedGeoJSON
Detalied Best Track (Time Zone = UTC)
Year Month Day Hour Lat. Long. Pressure (hPa) Wind (kt) Class Image Chart
2019 7 14 00 12.6 136.7 1004 0 2 Image Chart
2019 7 14 06 13.3 135.3 1004 0 2 Image Chart
2019 7 14 12 14.0 134.3 1004 0 2 Image Chart
2019 7 14 18 15.0 133.2 1002 0 2 Image Chart
2019 7 15 00 15.6 132.1 1002 0 2 Image Chart
2019 7 15 06 16.4 131.2 1000 0 2 Image Chart
2019 7 15 12 16.9 129.5 1000 0 2 Image Chart
2019 7 15 18 17.0 127.5 998 0 2 Image Chart
2019 7 16 00 17.0 126.0 998 0 2 Image Chart
2019 7 16 06 17.1 124.9 994 35 3 Image Chart
2019 7 16 12 17.2 123.9 994 35 3 Image Chart
2019 7 16 18 17.3 123.4 994 35 3 Image Chart
2019 7 17 00 18.1 123.5 994 35 3 Image Chart
2019 7 17 06 19.0 123.7 994 35 3 Image Chart
2019 7 17 12 20.5 124.1 992 35 3 Image Chart
2019 7 17 18 21.9 124.1 992 35 3 Image Chart
2019 7 18 00 23.6 124.1 990 40 3 Image Chart
2019 7 18 06 25.7 124.1 990 40 3 Image Chart
2019 7 18 12 26.5 124.0 990 40 3 Image Chart
2019 7 18 18 27.8 124.0 985 45 3 Image Chart
2019 7 19 00 29.0 124.0 985 45 3 Image Chart
2019 7 19 06 30.3 124.2 985 45 3 Image Chart
2019 7 19 12 31.8 124.7 985 45 3 Image Chart
2019 7 19 18 33.1 125.2 985 40 3 Image Chart
2019 7 20 00 34.2 125.5 985 40 3 Image Chart
2019 7 20 06 34.8 125.7 990 40 3 Image Chart
2019 7 20 12 35.7 126.3 994 35 3 Image Chart
2019 7 20 18 36.6 127.2 996 0 2 Image Chart
2019 7 21 00 37.9 128.5 998 0 2 Image Chart
2019 7 21 06 39.0 129.6 998 0 2 Image Chart
2019 7 21 12 40.2 130.4 998 0 6 Image Chart
2019 7 21 18 41.1 131.4 996 0 6 Image Chart
2019 7 22 00 41.4 131.9 996 0 6 Image Chart
2019 7 22 06 41.7 132.1 998 0 6 Image Chart
2019 7 22 12 42.0 132.9 1000 0 6 Image Chart
2019 7 22 18 42.3 134.4 1000 0 6 Image Chart
2019 7 23 00 42.6 135.7 1002 0 6 Image Chart
2019 7 23 06 43.1 137.1 1002 0 6 Image Chart
Japan Meteorological Agency Best Track Data | Correction Date : 2019-08-23
< Typhoon 201904 2019 Season Typhoon 201906 >

Help